Piffard, New York
Current Conditions -  °F | °C
As of 1:54 PM on Saturday 20 Dec 2014 (Local Time) from KDSV Reporting Station
Overcast Overcast  
Wind Chill: -1°   Ceiling: 2400
Heat Index: -1°   Visibility: 10mi
Dew Point: -6°   Wind: 3mph
Humidity: 67%   Direction: 310°NW
Pressure: 30.23"   Gusts: NA
Location:  42.83°N, 77.85°W
Report Text: KDSV 201854Z AUTO 31003KT 10SM OVC024 M01/M06 A3023 RMK AO2 SLP255 T10061061
Loading
Personal Weather Stations






























Interactive Weather Map New forecast layout! Learn more

10-Day Weather Forecast

Advertisements
Track Severe Weather on mobile